sensor_id;sensor_type;location;lat;lon;timestamp;P1;durP1;ratioP1;P2;durP2;ratioP2
44078;SDS011;29744;49.078;12.878;2023-05-17T00:01:18;1.33;;;0.90;;
44078;SDS011;29744;49.078;12.878;2023-05-17T00:06:19;0.98;;;0.73;;
44078;SDS011;29744;49.078;12.878;2023-05-17T00:11:20;1.15;;;0.70;;
44078;SDS011;29744;49.078;12.878;2023-05-17T00:16:20;1.35;;;0.82;;
44078;SDS011;29744;49.078;12.878;2023-05-17T00:21:20;1.10;;;0.77;;
44078;SDS011;29744;49.078;12.878;2023-05-17T00:26:21;1.02;;;0.70;;
44078;SDS011;29744;49.078;12.878;2023-05-17T00:31:21;1.32;;;0.92;;
44078;SDS011;29744;49.078;12.878;2023-05-17T00:36:21;1.05;;;0.80;;
44078;SDS011;29744;49.078;12.878;2023-05-17T00:41:21;0.95;;;0.77;;
44078;SDS011;29744;49.078;12.878;2023-05-17T00:46:22;0.98;;;0.80;;
44078;SDS011;29744;49.078;12.878;2023-05-17T00:51:22;1.23;;;0.82;;
44078;SDS011;29744;49.078;12.878;2023-05-17T00:56:22;1.10;;;0.80;;
44078;SDS011;29744;49.078;12.878;2023-05-17T01:01:24;1.20;;;0.80;;
44078;SDS011;29744;49.078;12.878;2023-05-17T01:06:25;1.10;;;0.70;;
44078;SDS011;29744;49.078;12.878;2023-05-17T01:16:47;1.48;;;0.93;;
44078;SDS011;29744;49.078;12.878;2023-05-17T01:22:25;1.27;;;0.80;;
44078;SDS011;29744;49.078;12.878;2023-05-17T01:27:39;1.08;;;0.80;;
44078;SDS011;29744;49.078;12.878;2023-05-17T01:32:40;1.58;;;1.00;;
44078;SDS011;29744;49.078;12.878;2023-05-17T01:37:42;1.50;;;0.80;;
44078;SDS011;29744;49.078;12.878;2023-05-17T01:42:42;1.20;;;0.90;;
44078;SDS011;29744;49.078;12.878;2023-05-17T01:47:45;1.30;;;0.70;;
44078;SDS011;29744;49.078;12.878;2023-05-17T01:58:23;1.30;;;0.90;;
44078;SDS011;29744;49.078;12.878;2023-05-17T02:03:26;1.20;;;0.80;;
44078;SDS011;29744;49.078;12.878;2023-05-17T02:08:26;1.23;;;0.70;;
44078;SDS011;29744;49.078;12.878;2023-05-17T02:13:26;1.58;;;0.80;;
44078;SDS011;29744;49.078;12.878;2023-05-17T02:18:27;1.10;;;0.70;;
44078;SDS011;29744;49.078;12.878;2023-05-17T02:23:27;0.85;;;0.63;;
44078;SDS011;29744;49.078;12.878;2023-05-17T02:28:28;1.38;;;0.80;;
44078;SDS011;29744;49.078;12.878;2023-05-17T02:33:28;1.10;;;0.75;;
44078;SDS011;29744;49.078;12.878;2023-05-17T02:38:28;1.30;;;0.90;;
44078;SDS011;29744;49.078;12.878;2023-05-17T02:43:28;1.33;;;0.80;;
44078;SDS011;29744;49.078;12.878;2023-05-17T02:48:31;0.85;;;0.70;;
44078;SDS011;29744;49.078;12.878;2023-05-17T02:53:32;1.02;;;0.80;;
44078;SDS011;29744;49.078;12.878;2023-05-17T02:58:32;1.00;;;0.70;;
44078;SDS011;29744;49.078;12.878;2023-05-17T03:03:32;1.52;;;0.90;;
44078;SDS011;29744;49.078;12.878;2023-05-17T03:08:33;0.57;;;0.57;;
44078;SDS011;29744;49.078;12.878;2023-05-17T03:13:33;1.15;;;0.80;;
44078;SDS011;29744;49.078;12.878;2023-05-17T03:18:33;0.84;;;0.68;;
44078;SDS011;29744;49.078;12.878;2023-05-17T03:23:34;0.93;;;0.70;;
44078;SDS011;29744;49.078;12.878;2023-05-17T03:28:34;0.50;;;0.50;;
44078;SDS011;29744;49.078;12.878;2023-05-17T03:33:35;1.35;;;0.77;;
44078;SDS011;29744;49.078;12.878;2023-05-17T03:38:35;0.80;;;0.70;;
44078;SDS011;29744;49.078;12.878;2023-05-17T03:43:35;0.93;;;0.80;;
44078;SDS011;29744;49.078;12.878;2023-05-17T03:48:36;1.00;;;0.60;;
44078;SDS011;29744;49.078;12.878;2023-05-17T03:53:36;0.95;;;0.80;;
44078;SDS011;29744;49.078;12.878;2023-05-17T03:58:42;0.65;;;0.50;;
44078;SDS011;29744;49.078;12.878;2023-05-17T04:03:42;0.95;;;0.68;;
44078;SDS011;29744;49.078;12.878;2023-05-17T04:08:42;1.10;;;0.70;;
44078;SDS011;29744;49.078;12.878;2023-05-17T04:13:42;0.75;;;0.60;;
44078;SDS011;29744;49.078;12.878;2023-05-17T04:18:43;1.02;;;0.70;;
44078;SDS011;29744;49.078;12.878;2023-05-17T04:23:44;1.02;;;0.60;;
44078;SDS011;29744;49.078;12.878;2023-05-17T04:28:44;0.90;;;0.70;;
44078;SDS011;29744;49.078;12.878;2023-05-17T04:33:44;0.68;;;0.60;;
44078;SDS011;29744;49.078;12.878;2023-05-17T04:38:45;0.55;;;0.50;;
44078;SDS011;29744;49.078;12.878;2023-05-17T04:43:46;0.68;;;0.63;;
44078;SDS011;29744;49.078;12.878;2023-05-17T04:48:46;1.05;;;0.73;;
44078;SDS011;29744;49.078;12.878;2023-05-17T04:53:46;0.68;;;0.50;;
44078;SDS011;29744;49.078;12.878;2023-05-17T04:58:47;0.45;;;0.45;;
44078;SDS011;29744;49.078;12.878;2023-05-17T05:03:47;0.70;;;0.60;;
44078;SDS011;29744;49.078;12.878;2023-05-17T05:08:47;0.75;;;0.70;;
44078;SDS011;29744;49.078;12.878;2023-05-17T05:13:48;1.45;;;0.60;;
44078;SDS011;29744;49.078;12.878;2023-05-17T05:18:48;0.43;;;0.43;;
44078;SDS011;29744;49.078;12.878;2023-05-17T05:23:48;1.27;;;0.60;;
44078;SDS011;29744;49.078;12.878;2023-05-17T05:28:48;0.88;;;0.65;;
44078;SDS011;29744;49.078;12.878;2023-05-17T05:33:49;0.68;;;0.50;;
44078;SDS011;29744;49.078;12.878;2023-05-17T05:38:49;0.40;;;0.40;;
44078;SDS011;29744;49.078;12.878;2023-05-17T05:43:52;1.02;;;0.60;;
44078;SDS011;29744;49.078;12.878;2023-05-17T05:48:53;0.77;;;0.52;;
44078;SDS011;29744;49.078;12.878;2023-05-17T05:53:53;0.52;;;0.50;;
44078;SDS011;29744;49.078;12.878;2023-05-17T05:58:54;0.50;;;0.50;;
44078;SDS011;29744;49.078;12.878;2023-05-17T06:03:55;0.55;;;0.50;;
44078;SDS011;29744;49.078;12.878;2023-05-17T06:08:55;1.13;;;0.70;;
44078;SDS011;29744;49.078;12.878;2023-05-17T06:13:55;0.77;;;0.50;;
44078;SDS011;29744;49.078;12.878;2023-05-17T06:18:56;0.50;;;0.43;;
44078;SDS011;29744;49.078;12.878;2023-05-17T06:23:56;0.50;;;0.40;;
44078;SDS011;29744;49.078;12.878;2023-05-17T06:28:56;0.60;;;0.50;;
44078;SDS011;29744;49.078;12.878;2023-05-17T06:33:56;0.65;;;0.57;;
44078;SDS011;29744;49.078;12.878;2023-05-17T06:38:57;1.13;;;0.75;;
44078;SDS011;29744;49.078;12.878;2023-05-17T06:43:57;0.50;;;0.50;;
44078;SDS011;29744;49.078;12.878;2023-05-17T06:48:57;0.93;;;0.60;;
44078;SDS011;29744;49.078;12.878;2023-05-17T06:53:57;0.77;;;0.60;;
44078;SDS011;29744;49.078;12.878;2023-05-17T06:58:58;0.68;;;0.50;;
44078;SDS011;29744;49.078;12.878;2023-05-17T07:03:58;0.70;;;0.47;;
44078;SDS011;29744;49.078;12.878;2023-05-17T07:08:58;0.50;;;0.50;;
44078;SDS011;29744;49.078;12.878;2023-05-17T07:13:59;0.50;;;0.50;;
44078;SDS011;29744;49.078;12.878;2023-05-17T07:18:59;0.95;;;0.60;;
44078;SDS011;29744;49.078;12.878;2023-05-17T07:23:59;1.00;;;0.50;;
44078;SDS011;29744;49.078;12.878;2023-05-17T07:29:00;0.52;;;0.43;;
44078;SDS011;29744;49.078;12.878;2023-05-17T07:34:00;0.47;;;0.47;;
44078;SDS011;29744;49.078;12.878;2023-05-17T07:39:00;0.50;;;0.47;;
44078;SDS011;29744;49.078;12.878;2023-05-17T07:44:01;0.50;;;0.50;;
44078;SDS011;29744;49.078;12.878;2023-05-17T07:49:01;0.55;;;0.50;;
44078;SDS011;29744;49.078;12.878;2023-05-17T07:54:01;0.95;;;0.52;;
44078;SDS011;29744;49.078;12.878;2023-05-17T07:59:02;0.60;;;0.32;;
44078;SDS011;29744;49.078;12.878;2023-05-17T08:04:02;0.80;;;0.50;;
44078;SDS011;29744;49.078;12.878;2023-05-17T08:09:03;0.63;;;0.50;;
44078;SDS011;29744;49.078;12.878;2023-05-17T08:14:03;0.80;;;0.40;;
44078;SDS011;29744;49.078;12.878;2023-05-17T08:19:04;0.40;;;0.40;;
44078;SDS011;29744;49.078;12.878;2023-05-17T08:24:05;0.88;;;0.43;;
44078;SDS011;29744;49.078;12.878;2023-05-17T08:29:05;0.40;;;0.40;;
44078;SDS011;29744;49.078;12.878;2023-05-17T08:34:06;0.45;;;0.43;;
44078;SDS011;29744;49.078;12.878;2023-05-17T08:39:06;0.75;;;0.40;;
44078;SDS011;29744;49.078;12.878;2023-05-17T08:44:07;0.63;;;0.52;;
44078;SDS011;29744;49.078;12.878;2023-05-17T08:49:08;0.40;;;0.40;;
44078;SDS011;29744;49.078;12.878;2023-05-17T08:54:12;0.40;;;0.40;;
44078;SDS011;29744;49.078;12.878;2023-05-17T08:59:13;0.73;;;0.50;;
44078;SDS011;29744;49.078;12.878;2023-05-17T09:04:14;0.80;;;0.50;;
44078;SDS011;29744;49.078;12.878;2023-05-17T09:09:15;0.82;;;0.50;;
44078;SDS011;29744;49.078;12.878;2023-05-17T09:14:17;0.60;;;0.30;;
44078;SDS011;29744;49.078;12.878;2023-05-17T09:19:18;0.50;;;0.47;;
44078;SDS011;29744;49.078;12.878;2023-05-17T09:24:26;0.60;;;0.50;;
44078;SDS011;29744;49.078;12.878;2023-05-17T09:29:31;0.93;;;0.55;;
44078;SDS011;29744;49.078;12.878;2023-05-17T09:34:31;0.55;;;0.40;;
44078;SDS011;29744;49.078;12.878;2023-05-17T09:39:32;0.50;;;0.43;;
44078;SDS011;29744;49.078;12.878;2023-05-17T09:44:44;0.50;;;0.40;;
44078;SDS011;29744;49.078;12.878;2023-05-17T09:49:52;0.73;;;0.40;;
44078;SDS011;29744;49.078;12.878;2023-05-17T09:54:55;0.57;;;0.50;;
44078;SDS011;29744;49.078;12.878;2023-05-17T09:59:57;0.30;;;0.30;;
44078;SDS011;29744;49.078;12.878;2023-05-17T10:04:57;0.73;;;0.50;;
44078;SDS011;29744;49.078;12.878;2023-05-17T10:10:04;0.57;;;0.40;;
44078;SDS011;29744;49.078;12.878;2023-05-17T10:15:05;0.43;;;0.40;;
44078;SDS011;29744;49.078;12.878;2023-05-17T10:20:07;0.55;;;0.40;;
44078;SDS011;29744;49.078;12.878;2023-05-17T10:25:09;0.55;;;0.50;;
44078;SDS011;29744;49.078;12.878;2023-05-17T10:30:09;0.90;;;0.50;;
44078;SDS011;29744;49.078;12.878;2023-05-17T10:35:11;0.30;;;0.30;;
44078;SDS011;29744;49.078;12.878;2023-05-17T10:40:14;0.60;;;0.40;;
44078;SDS011;29744;49.078;12.878;2023-05-17T10:45:19;0.98;;;0.50;;
44078;SDS011;29744;49.078;12.878;2023-05-17T10:50:24;0.65;;;0.50;;
44078;SDS011;29744;49.078;12.878;2023-05-17T10:55:35;0.82;;;0.50;;
44078;SDS011;29744;49.078;12.878;2023-05-17T11:00:40;0.43;;;0.32;;
44078;SDS011;29744;49.078;12.878;2023-05-17T11:05:42;0.50;;;0.40;;
44078;SDS011;29744;49.078;12.878;2023-05-17T11:11:06;0.40;;;0.30;;
44078;SDS011;29744;49.078;12.878;2023-05-17T11:16:08;0.40;;;0.30;;
44078;SDS011;29744;49.078;12.878;2023-05-17T11:21:08;0.85;;;0.60;;
44078;SDS011;29744;49.078;12.878;2023-05-17T11:26:15;0.40;;;0.40;;
44078;SDS011;29744;49.078;12.878;2023-05-17T11:31:31;0.57;;;0.43;;
44078;SDS011;29744;49.078;12.878;2023-05-17T11:36:33;0.98;;;0.43;;
44078;SDS011;29744;49.078;12.878;2023-05-17T11:41:57;0.43;;;0.43;;
44078;SDS011;29744;49.078;12.878;2023-05-17T11:47:00;0.63;;;0.50;;
44078;SDS011;29744;49.078;12.878;2023-05-17T11:52:06;0.38;;;0.38;;
44078;SDS011;29744;49.078;12.878;2023-05-17T11:57:07;0.65;;;0.50;;
44078;SDS011;29744;49.078;12.878;2023-05-17T12:02:08;0.40;;;0.40;;
44078;SDS011;29744;49.078;12.878;2023-05-17T12:07:09;0.52;;;0.40;;
44078;SDS011;29744;49.078;12.878;2023-05-17T12:12:10;0.40;;;0.30;;
44078;SDS011;29744;49.078;12.878;2023-05-17T12:17:11;0.40;;;0.40;;
44078;SDS011;29744;49.078;12.878;2023-05-17T12:22:23;0.57;;;0.45;;
44078;SDS011;29744;49.078;12.878;2023-05-17T12:27:24;0.40;;;0.30;;
44078;SDS011;29744;49.078;12.878;2023-05-17T12:32:26;0.57;;;0.40;;
44078;SDS011;29744;49.078;12.878;2023-05-17T12:37:26;0.40;;;0.40;;
44078;SDS011;29744;49.078;12.878;2023-05-17T12:42:26;0.55;;;0.50;;
44078;SDS011;29744;49.078;12.878;2023-05-17T12:47:30;0.47;;;0.40;;
44078;SDS011;29744;49.078;12.878;2023-05-17T12:52:34;0.40;;;0.40;;
44078;SDS011;29744;49.078;12.878;2023-05-17T12:57:35;0.82;;;0.50;;
44078;SDS011;29744;49.078;12.878;2023-05-17T13:02:36;0.40;;;0.30;;
44078;SDS011;29744;49.078;12.878;2023-05-17T13:07:40;0.50;;;0.40;;
44078;SDS011;29744;49.078;12.878;2023-05-17T13:12:40;0.60;;;0.50;;
44078;SDS011;29744;49.078;12.878;2023-05-17T13:17:41;0.45;;;0.40;;
44078;SDS011;29744;49.078;12.878;2023-05-17T13:22:47;0.68;;;0.43;;
44078;SDS011;29744;49.078;12.878;2023-05-17T13:27:48;0.73;;;0.38;;
44078;SDS011;29744;49.078;12.878;2023-05-17T13:32:48;0.75;;;0.60;;
44078;SDS011;29744;49.078;12.878;2023-05-17T13:37:49;1.25;;;0.40;;
44078;SDS011;29744;49.078;12.878;2023-05-17T13:42:50;0.43;;;0.40;;
44078;SDS011;29744;49.078;12.878;2023-05-17T13:47:50;0.52;;;0.40;;
44078;SDS011;29744;49.078;12.878;2023-05-17T13:52:50;1.08;;;0.50;;
44078;SDS011;29744;49.078;12.878;2023-05-17T13:57:51;0.35;;;0.35;;
44078;SDS011;29744;49.078;12.878;2023-05-17T14:02:51;0.40;;;0.40;;
44078;SDS011;29744;49.078;12.878;2023-05-17T14:07:52;0.50;;;0.40;;
44078;SDS011;29744;49.078;12.878;2023-05-17T14:12:52;0.30;;;0.30;;
44078;SDS011;29744;49.078;12.878;2023-05-17T14:17:52;0.63;;;0.43;;
44078;SDS011;29744;49.078;12.878;2023-05-17T14:22:53;1.58;;;0.52;;
44078;SDS011;29744;49.078;12.878;2023-05-17T14:27:53;0.38;;;0.38;;
44078;SDS011;29744;49.078;12.878;2023-05-17T14:32:53;1.23;;;0.60;;
44078;SDS011;29744;49.078;12.878;2023-05-17T14:37:54;0.40;;;0.40;;
44078;SDS011;29744;49.078;12.878;2023-05-17T14:42:54;0.70;;;0.50;;
44078;SDS011;29744;49.078;12.878;2023-05-17T14:47:55;0.70;;;0.45;;
44078;SDS011;29744;49.078;12.878;2023-05-17T14:52:55;1.00;;;0.50;;
44078;SDS011;29744;49.078;12.878;2023-05-17T14:57:56;0.57;;;0.50;;
44078;SDS011;29744;49.078;12.878;2023-05-17T15:03:00;0.70;;;0.50;;
44078;SDS011;29744;49.078;12.878;2023-05-17T15:08:00;0.50;;;0.38;;
44078;SDS011;29744;49.078;12.878;2023-05-17T15:13:01;0.80;;;0.50;;
44078;SDS011;29744;49.078;12.878;2023-05-17T15:18:01;1.00;;;0.40;;
44078;SDS011;29744;49.078;12.878;2023-05-17T15:23:02;0.90;;;0.40;;
44078;SDS011;29744;49.078;12.878;2023-05-17T15:28:02;0.50;;;0.50;;
44078;SDS011;29744;49.078;12.878;2023-05-17T15:33:02;0.40;;;0.40;;
44078;SDS011;29744;49.078;12.878;2023-05-17T15:38:03;0.85;;;0.50;;
44078;SDS011;29744;49.078;12.878;2023-05-17T15:43:06;0.47;;;0.40;;
44078;SDS011;29744;49.078;12.878;2023-05-17T15:48:06;1.15;;;0.50;;
44078;SDS011;29744;49.078;12.878;2023-05-17T15:53:07;0.60;;;0.45;;
44078;SDS011;29744;49.078;12.878;2023-05-17T15:58:07;0.85;;;0.60;;
44078;SDS011;29744;49.078;12.878;2023-05-17T16:03:09;0.82;;;0.60;;
44078;SDS011;29744;49.078;12.878;2023-05-17T16:08:10;1.92;;;0.50;;
44078;SDS011;29744;49.078;12.878;2023-05-17T16:13:11;1.10;;;0.60;;
44078;SDS011;29744;49.078;12.878;2023-05-17T16:18:11;0.55;;;0.50;;
44078;SDS011;29744;49.078;12.878;2023-05-17T16:23:13;0.70;;;0.60;;
44078;SDS011;29744;49.078;12.878;2023-05-17T16:28:13;0.60;;;0.50;;
44078;SDS011;29744;49.078;12.878;2023-05-17T16:33:14;0.70;;;0.50;;
44078;SDS011;29744;49.078;12.878;2023-05-17T16:38:15;0.88;;;0.50;;
44078;SDS011;29744;49.078;12.878;2023-05-17T16:43:15;0.77;;;0.57;;
44078;SDS011;29744;49.078;12.878;2023-05-17T16:48:16;0.70;;;0.47;;
44078;SDS011;29744;49.078;12.878;2023-05-17T16:53:16;0.50;;;0.40;;
44078;SDS011;29744;49.078;12.878;2023-05-17T16:58:16;0.50;;;0.50;;
44078;SDS011;29744;49.078;12.878;2023-05-17T17:03:17;0.47;;;0.47;;
44078;SDS011;29744;49.078;12.878;2023-05-17T17:08:17;0.88;;;0.60;;
44078;SDS011;29744;49.078;12.878;2023-05-17T17:13:17;1.15;;;0.60;;
44078;SDS011;29744;49.078;12.878;2023-05-17T17:18:17;0.85;;;0.50;;
44078;SDS011;29744;49.078;12.878;2023-05-17T17:23:18;0.70;;;0.50;;
44078;SDS011;29744;49.078;12.878;2023-05-17T17:28:18;1.00;;;0.60;;
44078;SDS011;29744;49.078;12.878;2023-05-17T17:33:19;1.00;;;0.60;;
44078;SDS011;29744;49.078;12.878;2023-05-17T17:38:19;1.08;;;0.60;;
44078;SDS011;29744;49.078;12.878;2023-05-17T17:43:20;0.63;;;0.50;;
44078;SDS011;29744;49.078;12.878;2023-05-17T17:48:20;1.40;;;0.60;;
44078;SDS011;29744;49.078;12.878;2023-05-17T17:53:20;1.15;;;0.60;;
44078;SDS011;29744;49.078;12.878;2023-05-17T17:58:22;1.08;;;0.60;;
44078;SDS011;29744;49.078;12.878;2023-05-17T18:03:22;0.73;;;0.50;;
44078;SDS011;29744;49.078;12.878;2023-05-17T18:08:22;0.80;;;0.50;;
44078;SDS011;29744;49.078;12.878;2023-05-17T18:13:22;0.70;;;0.60;;
44078;SDS011;29744;49.078;12.878;2023-05-17T18:18:23;1.23;;;0.70;;
44078;SDS011;29744;49.078;12.878;2023-05-17T18:23:23;1.20;;;0.60;;
44078;SDS011;29744;49.078;12.878;2023-05-17T18:28:23;0.68;;;0.60;;
44078;SDS011;29744;49.078;12.878;2023-05-17T18:33:24;0.68;;;0.60;;
44078;SDS011;29744;49.078;12.878;2023-05-17T18:38:26;0.80;;;0.60;;
44078;SDS011;29744;49.078;12.878;2023-05-17T18:43:27;1.23;;;0.73;;
44078;SDS011;29744;49.078;12.878;2023-05-17T18:48:28;1.30;;;0.70;;
44078;SDS011;29744;49.078;12.878;2023-05-17T18:53:29;2.30;;;0.80;;
44078;SDS011;29744;49.078;12.878;2023-05-17T18:58:29;0.98;;;0.50;;
44078;SDS011;29744;49.078;12.878;2023-05-17T19:03:30;1.23;;;0.70;;
44078;SDS011;29744;49.078;12.878;2023-05-17T19:08:30;2.00;;;0.80;;
44078;SDS011;29744;49.078;12.878;2023-05-17T19:13:30;0.93;;;0.65;;
44078;SDS011;29744;49.078;12.878;2023-05-17T19:18:31;1.00;;;0.65;;
44078;SDS011;29744;49.078;12.878;2023-05-17T19:23:31;1.33;;;0.70;;
44078;SDS011;29744;49.078;12.878;2023-05-17T19:28:32;0.90;;;0.60;;
44078;SDS011;29744;49.078;12.878;2023-05-17T19:33:34;1.17;;;0.60;;
44078;SDS011;29744;49.078;12.878;2023-05-17T19:38:36;0.90;;;0.70;;
44078;SDS011;29744;49.078;12.878;2023-05-17T19:43:36;1.00;;;0.60;;
44078;SDS011;29744;49.078;12.878;2023-05-17T19:48:37;1.15;;;0.65;;
44078;SDS011;29744;49.078;12.878;2023-05-17T19:53:38;1.30;;;0.68;;
44078;SDS011;29744;49.078;12.878;2023-05-17T19:58:38;1.15;;;0.70;;
44078;SDS011;29744;49.078;12.878;2023-05-17T20:03:38;0.98;;;0.50;;
44078;SDS011;29744;49.078;12.878;2023-05-17T20:08:39;1.38;;;0.68;;
44078;SDS011;29744;49.078;12.878;2023-05-17T20:13:40;0.50;;;0.50;;
44078;SDS011;29744;49.078;12.878;2023-05-17T20:18:41;0.55;;;0.50;;
44078;SDS011;29744;49.078;12.878;2023-05-17T20:23:42;1.10;;;0.68;;
44078;SDS011;29744;49.078;12.878;2023-05-17T20:28:43;0.98;;;0.65;;
44078;SDS011;29744;49.078;12.878;2023-05-17T20:33:44;1.55;;;0.70;;
44078;SDS011;29744;49.078;12.878;2023-05-17T20:38:44;1.20;;;0.70;;
44078;SDS011;29744;49.078;12.878;2023-05-17T20:43:45;1.02;;;0.70;;
44078;SDS011;29744;49.078;12.878;2023-05-17T20:48:48;0.82;;;0.63;;
44078;SDS011;29744;49.078;12.878;2023-05-17T20:53:49;1.08;;;0.70;;
44078;SDS011;29744;49.078;12.878;2023-05-17T20:58:49;1.60;;;0.88;;
44078;SDS011;29744;49.078;12.878;2023-05-17T21:03:50;1.50;;;0.70;;
44078;SDS011;29744;49.078;12.878;2023-05-17T21:08:50;1.60;;;0.60;;
44078;SDS011;29744;49.078;12.878;2023-05-17T21:13:51;1.00;;;0.70;;
44078;SDS011;29744;49.078;12.878;2023-05-17T21:18:51;0.98;;;0.60;;
44078;SDS011;29744;49.078;12.878;2023-05-17T21:23:52;1.10;;;0.70;;
44078;SDS011;29744;49.078;12.878;2023-05-17T21:28:52;1.30;;;0.70;;
44078;SDS011;29744;49.078;12.878;2023-05-17T21:33:52;0.90;;;0.70;;
44078;SDS011;29744;49.078;12.878;2023-05-17T21:38:53;1.08;;;0.68;;
44078;SDS011;29744;49.078;12.878;2023-05-17T21:43:53;1.30;;;0.70;;
44078;SDS011;29744;49.078;12.878;2023-05-17T21:48:53;1.88;;;0.80;;
44078;SDS011;29744;49.078;12.878;2023-05-17T21:53:53;0.70;;;0.60;;
44078;SDS011;29744;49.078;12.878;2023-05-17T21:58:54;1.15;;;0.77;;
44078;SDS011;29744;49.078;12.878;2023-05-17T22:03:54;0.82;;;0.63;;
44078;SDS011;29744;49.078;12.878;2023-05-17T22:08:54;1.42;;;0.85;;
44078;SDS011;29744;49.078;12.878;2023-05-17T22:13:55;0.88;;;0.60;;
44078;SDS011;29744;49.078;12.878;2023-05-17T22:18:55;0.60;;;0.52;;
44078;SDS011;29744;49.078;12.878;2023-05-17T22:23:59;1.33;;;0.80;;
44078;SDS011;29744;49.078;12.878;2023-05-17T22:28:59;0.90;;;0.60;;
44078;SDS011;29744;49.078;12.878;2023-05-17T22:34:00;1.25;;;0.70;;
44078;SDS011;29744;49.078;12.878;2023-05-17T22:39:00;1.20;;;0.80;;
44078;SDS011;29744;49.078;12.878;2023-05-17T22:44:00;1.20;;;0.80;;
44078;SDS011;29744;49.078;12.878;2023-05-17T22:49:01;1.35;;;0.85;;
44078;SDS011;29744;49.078;12.878;2023-05-17T22:54:01;1.17;;;0.75;;
44078;SDS011;29744;49.078;12.878;2023-05-17T22:59:02;0.98;;;0.70;;
44078;SDS011;29744;49.078;12.878;2023-05-17T23:04:02;1.35;;;0.80;;
44078;SDS011;29744;49.078;12.878;2023-05-17T23:09:02;1.08;;;0.70;;
44078;SDS011;29744;49.078;12.878;2023-05-17T23:14:04;1.20;;;0.70;;
44078;SDS011;29744;49.078;12.878;2023-05-17T23:19:04;1.58;;;0.88;;
44078;SDS011;29744;49.078;12.878;2023-05-17T23:24:05;0.88;;;0.60;;
44078;SDS011;29744;49.078;12.878;2023-05-17T23:29:06;1.08;;;0.60;;
44078;SDS011;29744;49.078;12.878;2023-05-17T23:34:09;0.65;;;0.60;;
44078;SDS011;29744;49.078;12.878;2023-05-17T23:39:10;1.65;;;0.80;;
44078;SDS011;29744;49.078;12.878;2023-05-17T23:44:10;0.98;;;0.70;;
44078;SDS011;29744;49.078;12.878;2023-05-17T23:49:11;2.05;;;0.60;;
44078;SDS011;29744;49.078;12.878;2023-05-17T23:54:11;1.60;;;0.88;;
44078;SDS011;29744;49.078;12.878;2023-05-17T23:59:12;0.90;;;0.70;;
